首页
METAR-TAF:

METAR-TAF

机场 :

阿尔及尔胡阿里·布迈丁机场

阿爾及爾, 阿尔及利亚

纬度: 36-43N, 经度: 003-15E, 海拔: 25米

当前天气观测

该预报发布于17分钟前的20:00 UTC
风速6节,风向,在东转东北东南之间变化
温度 18°C
湿度 83%
气压 1019 hPa
能见度10公里或以上
少量云层高于2300英尺
散云层高于4600英尺

METAR: DAAG 142000Z 10006KT 070V130 9999 FEW023 SCT046 18/15 Q1019

时间: 21:17 (20:17 UTC)

预报

该预报发布于3小时和17分钟前的17:00 UTC
预报有效从14日的 18点(UTC)到 15日的 18点(UTC)
风速8节,风向
能见度10公里或以上
少量云层高于2300英尺
散云层高于5000英尺
多云层高于8000英尺
几率 30% :
短暂存在
从 14日的 18点(UTC)到 14日的 22点(UTC)
能見度: 5000
少量云层高于2300英尺, 塔状积云.
小雨
几率 40% :
短暂存在
从 15日的 08点(UTC)到 15日的 16点(UTC)
少量云层高于2600英尺, 积雨云.

TAF: DAAG 141700Z 1418/1518 10008KT 9999 FEW023 SCT050 BKN080 PROB30 TEMPO 1418/1422 5000 -RA FEW023TCU PROB40 TEMPO 1508/1516 FEW026CB

超过4000个机场的气象观测和天气预报(METAR&TAF报告)。

可查询的气象台以黄色和红色小点在地图上表示。

将鼠标移到小点上方,可查看气象台名称。

然后点击查看天气观测和预报。

如需切换地图:点击带黑十字的绿色按钮放大地图;点击带横线的绿色按钮缩小地图;或者点击绿色箭头查看邻近地区的地图。


METAR-TAF: